createdAt,value
2018-12-29T00:00:14.881Z,4.20
2018-12-29T00:02:43.834Z,4.20
2018-12-29T00:05:12.687Z,4.30
2018-12-29T00:07:41.708Z,4.30
2018-12-29T00:10:10.478Z,4.30
2018-12-29T00:12:39.358Z,4.40
2018-12-29T00:15:11.242Z,4.30
2018-12-29T00:17:40.162Z,4.30
2018-12-29T00:20:09.114Z,4.40
2018-12-29T00:22:38.055Z,4.30
2018-12-29T00:25:06.953Z,4.40
2018-12-29T00:27:35.865Z,4.40
2018-12-29T00:30:05.489Z,4.40
2018-12-29T00:32:34.448Z,4.40
2018-12-29T00:35:03.200Z,4.40
2018-12-29T00:37:32.131Z,4.30
2018-12-29T00:40:00.950Z,4.40
2018-12-29T00:42:29.843Z,4.40
2018-12-29T00:45:02.595Z,4.30
2018-12-29T00:47:30.203Z,4.40
2018-12-29T00:49:59.118Z,4.40
2018-12-29T00:52:27.906Z,4.40
2018-12-29T00:54:56.771Z,4.40
2018-12-29T00:57:25.693Z,4.40
2018-12-29T00:59:54.439Z,4.40
2018-12-29T01:02:23.032Z,4.50
2018-12-29T01:04:51.904Z,4.50
2018-12-29T01:07:20.552Z,4.50
2018-12-29T01:09:49.519Z,4.40
2018-12-29T01:12:18.928Z,4.50
2018-12-29T01:14:47.847Z,4.50
2018-12-29T01:17:16.477Z,4.60
2018-12-29T01:19:45.385Z,4.60
2018-12-29T01:22:14.286Z,4.60
2018-12-29T01:24:43.116Z,4.70
2018-12-29T01:27:11.844Z,4.60
2018-12-29T01:29:40.538Z,4.60
2018-12-29T01:32:09.334Z,4.60
2018-12-29T01:34:38.001Z,4.60
2018-12-29T01:37:08.305Z,4.60
2018-12-29T01:39:37.140Z,4.60
2018-12-29T01:42:05.819Z,4.60
2018-12-29T01:44:34.501Z,4.60
2018-12-29T01:47:03.241Z,4.60
2018-12-29T01:49:31.974Z,4.60
2018-12-29T01:52:00.835Z,4.60
2018-12-29T01:54:29.540Z,4.60
2018-12-29T01:56:58.438Z,4.60
2018-12-29T01:59:27.343Z,4.60
2018-12-29T02:01:56.181Z,4.60
2018-12-29T02:04:24.851Z,4.60
2018-12-29T02:06:53.643Z,4.50
2018-12-29T02:09:22.591Z,4.70
2018-12-29T02:11:51.321Z,4.60
2018-12-29T02:14:20.175Z,4.60
2018-12-29T02:16:49.099Z,4.60
2018-12-29T02:19:17.849Z,4.60
2018-12-29T02:21:49.279Z,4.50
2018-12-29T02:24:17.963Z,4.60
2018-12-29T02:26:46.831Z,4.60
2018-12-29T02:29:15.709Z,4.60
2018-12-29T02:31:44.468Z,4.70
2018-12-29T02:34:13.299Z,4.70
2018-12-29T02:36:41.998Z,4.70
2018-12-29T02:39:10.708Z,4.70
2018-12-29T02:41:40.933Z,4.70
2018-12-29T02:44:09.596Z,4.80
2018-12-29T02:46:39.394Z,4.70
2018-12-29T02:49:07.985Z,4.70
2018-12-29T02:51:36.791Z,4.70
2018-12-29T02:54:05.485Z,4.70
2018-12-29T02:56:34.138Z,4.70
2018-12-29T02:59:02.918Z,4.70
2018-12-29T03:01:31.576Z,4.70
2018-12-29T03:04:00.176Z,4.70
2018-12-29T03:06:30.949Z,4.80
2018-12-29T03:08:59.611Z,4.70
2018-12-29T03:11:28.489Z,4.70
2018-12-29T03:13:57.190Z,4.70
2018-12-29T03:16:26.062Z,4.80
2018-12-29T03:18:54.767Z,4.80
2018-12-29T03:21:23.335Z,4.80
2018-12-29T03:23:52.075Z,4.80
2018-12-29T03:26:20.931Z,4.90
2018-12-29T03:28:49.735Z,4.80
2018-12-29T03:31:18.619Z,4.90
2018-12-29T03:33:47.165Z,5.00
2018-12-29T03:36:15.724Z,4.90
2018-12-29T03:38:44.607Z,5.00
2018-12-29T03:41:13.326Z,5.00
2018-12-29T03:43:42.301Z,4.90
2018-12-29T03:46:10.902Z,4.90
2018-12-29T03:48:39.705Z,4.90
2018-12-29T03:51:08.552Z,4.90
2018-12-29T03:53:37.343Z,4.90
2018-12-29T03:56:06.142Z,4.90
2018-12-29T03:58:34.753Z,4.90
2018-12-29T04:01:03.529Z,4.90
2018-12-29T04:03:32.370Z,4.90
2018-12-29T04:06:01.164Z,4.80
2018-12-29T04:08:29.867Z,4.80
2018-12-29T04:10:59.345Z,4.80
2018-12-29T04:13:28.087Z,4.80
2018-12-29T04:15:58.120Z,4.90
2018-12-29T04:18:27.257Z,4.90
2018-12-29T04:20:55.963Z,4.80
2018-12-29T04:23:24.730Z,4.80
2018-12-29T04:25:53.313Z,4.90
2018-12-29T04:28:23.429Z,4.90
2018-12-29T04:30:52.248Z,5.00
2018-12-29T04:33:20.770Z,5.00
2018-12-29T04:35:49.444Z,5.00
2018-12-29T04:38:18.366Z,4.90
2018-12-29T04:40:47.127Z,4.90
2018-12-29T04:43:15.872Z,4.90
2018-12-29T04:45:44.598Z,4.90
2018-12-29T04:48:13.430Z,4.90
2018-12-29T04:50:42.209Z,4.90
2018-12-29T04:53:10.975Z,5.00
2018-12-29T04:55:39.744Z,5.00
2018-12-29T04:58:08.499Z,5.00
2018-12-29T05:00:37.326Z,5.00
2018-12-29T05:03:06.027Z,5.00
2018-12-29T05:05:34.839Z,5.00
2018-12-29T05:08:03.377Z,5.00
2018-12-29T05:10:32.361Z,4.90
2018-12-29T05:13:00.909Z,5.00
2018-12-29T05:15:29.841Z,5.00
2018-12-29T05:17:58.608Z,5.00
2018-12-29T05:20:27.438Z,5.00
2018-12-29T05:22:56.156Z,5.00
2018-12-29T05:25:25.096Z,5.00
2018-12-29T05:27:53.897Z,5.10
2018-12-29T05:30:22.698Z,5.10
2018-12-29T05:32:51.508Z,5.10
2018-12-29T05:35:20.076Z,5.10
2018-12-29T05:37:49.637Z,5.10
2018-12-29T05:40:18.549Z,5.10
2018-12-29T05:42:47.149Z,5.10
2018-12-29T05:45:16.179Z,5.10
2018-12-29T05:47:44.774Z,5.10
2018-12-29T05:50:13.553Z,5.10
2018-12-29T05:52:42.483Z,5.10
2018-12-29T05:55:11.336Z,5.20
2018-12-29T05:57:40.228Z,5.20
2018-12-29T06:00:10.399Z,5.30
2018-12-29T06:02:39.234Z,5.20
2018-12-29T06:05:08.034Z,5.30
2018-12-29T06:07:38.174Z,5.20
2018-12-29T06:10:07.075Z,5.20
2018-12-29T06:12:35.673Z,5.20
2018-12-29T06:15:05.566Z,5.20
2018-12-29T06:17:34.423Z,5.30
2018-12-29T06:20:03.982Z,5.30
2018-12-29T06:22:32.900Z,5.40
2018-12-29T06:25:01.664Z,5.40
2018-12-29T06:27:30.220Z,5.40
2018-12-29T06:29:58.816Z,5.40
2018-12-29T06:32:27.585Z,5.50
2018-12-29T06:34:56.414Z,5.60
2018-12-29T06:37:25.044Z,5.50
2018-12-29T06:39:53.829Z,5.50
2018-12-29T06:42:22.438Z,5.40
2018-12-29T06:44:51.178Z,5.40
2018-12-29T06:47:21.400Z,5.30
2018-12-29T06:49:50.183Z,5.40
2018-12-29T06:52:19.092Z,5.40
2018-12-29T06:54:48.028Z,5.40
2018-12-29T06:57:16.913Z,5.40
2018-12-29T06:59:45.784Z,5.40
2018-12-29T07:02:14.725Z,5.40
2018-12-29T07:04:43.589Z,5.40
2018-12-29T07:07:12.383Z,5.40
2018-12-29T07:09:41.089Z,5.40
2018-12-29T07:12:09.866Z,5.40
2018-12-29T07:14:38.475Z,5.40
2018-12-29T07:17:07.139Z,5.40
2018-12-29T07:19:35.843Z,5.50
2018-12-29T07:22:04.527Z,5.50
2018-12-29T07:24:33.179Z,5.50
2018-12-29T07:27:01.981Z,5.50
2018-12-29T07:29:37.937Z,5.50
2018-12-29T07:32:00.983Z,5.50
2018-12-29T07:34:29.773Z,5.60
2018-12-29T07:36:58.369Z,5.60
2018-12-29T07:39:28.586Z,5.60
2018-12-29T07:41:57.142Z,5.70
2018-12-29T07:44:25.940Z,5.60
2018-12-29T07:46:54.678Z,5.60
2018-12-29T07:49:23.425Z,5.60
2018-12-29T07:51:52.193Z,5.60
2018-12-29T07:54:21.097Z,5.60
2018-12-29T07:56:49.832Z,5.60
2018-12-29T07:59:18.388Z,5.60
2018-12-29T08:01:47.306Z,5.60
2018-12-29T08:04:16.054Z,5.60
2018-12-29T08:06:44.566Z,5.60
2018-12-29T08:09:13.532Z,5.70
2018-12-29T08:11:42.169Z,5.70
2018-12-29T08:14:10.951Z,5.70
2018-12-29T08:16:41.141Z,5.70
2018-12-29T08:19:09.832Z,5.70
2018-12-29T08:21:38.708Z,5.80
2018-12-29T08:24:07.329Z,6.00
2018-12-29T08:26:36.134Z,6.00
2018-12-29T08:29:05.054Z,6.00
2018-12-29T08:31:33.952Z,6.00
2018-12-29T08:34:02.832Z,6.10
2018-12-29T08:36:31.483Z,6.00
2018-12-29T08:39:00.344Z,6.10
2018-12-29T08:41:29.210Z,6.20
2018-12-29T08:43:58.039Z,6.10
2018-12-29T08:46:27.012Z,6.10
2018-12-29T08:48:55.853Z,6.20
2018-12-29T08:51:24.817Z,6.10
2018-12-29T08:53:53.672Z,6.10
2018-12-29T08:56:22.393Z,6.10
2018-12-29T08:58:51.314Z,6.10
2018-12-29T09:01:20.173Z,6.10
2018-12-29T09:03:49.011Z,6.10
2018-12-29T09:06:19.730Z,6.10
2018-12-29T09:08:48.467Z,6.10
2018-12-29T09:11:20.229Z,6.10
2018-12-29T09:13:48.937Z,6.20
2018-12-29T09:16:17.730Z,6.10
2018-12-29T09:18:49.807Z,6.10
2018-12-29T09:21:16.997Z,6.20
2018-12-29T09:23:45.740Z,6.20
2018-12-29T09:26:14.551Z,6.20
2018-12-29T09:28:43.427Z,6.20
2018-12-29T09:31:11.933Z,6.10
2018-12-29T09:33:42.309Z,6.20
2018-12-29T09:36:11.119Z,6.30
2018-12-29T09:38:39.695Z,6.20
2018-12-29T09:41:08.268Z,6.30
2018-12-29T09:43:37.083Z,6.30
2018-12-29T09:46:05.793Z,6.30
2018-12-29T09:48:34.494Z,6.30
2018-12-29T09:51:03.248Z,6.30
2018-12-29T09:53:32.062Z,6.40
2018-12-29T09:56:00.788Z,6.40
2018-12-29T09:58:31.264Z,6.40
2018-12-29T10:01:00.204Z,6.40
2018-12-29T10:03:28.925Z,6.50
2018-12-29T10:05:57.638Z,6.50
2018-12-29T10:08:26.479Z,6.50
2018-12-29T10:10:55.082Z,6.50
2018-12-29T10:13:23.620Z,6.50
2018-12-29T10:15:52.452Z,6.50
2018-12-29T10:18:21.402Z,6.60
2018-12-29T10:20:49.932Z,6.60
2018-12-29T10:23:18.742Z,6.60
2018-12-29T10:25:47.468Z,6.60
2018-12-29T10:28:16.372Z,6.70
2018-12-29T10:30:45.189Z,6.70
2018-12-29T10:33:13.862Z,6.70
2018-12-29T10:35:42.831Z,6.70
2018-12-29T10:38:11.741Z,6.80
2018-12-29T10:40:40.514Z,6.80
2018-12-29T10:43:09.543Z,6.80
2018-12-29T10:45:38.625Z,6.80
2018-12-29T10:48:07.715Z,6.80
2018-12-29T10:50:36.507Z,6.90
2018-12-29T10:53:05.450Z,6.90
2018-12-29T10:55:34.485Z,7.00
2018-12-29T10:58:03.514Z,7.00
2018-12-29T11:00:35.066Z,7.00
2018-12-29T11:03:02.672Z,7.00
2018-12-29T11:05:31.574Z,7.10
2018-12-29T11:08:00.525Z,7.10
2018-12-29T11:10:29.366Z,7.10
2018-12-29T11:12:58.245Z,7.10
2018-12-29T11:15:27.281Z,7.10
2018-12-29T11:17:56.121Z,7.10
2018-12-29T11:20:24.946Z,7.10
2018-12-29T11:22:53.814Z,7.10
2018-12-29T11:25:22.927Z,7.10
2018-12-29T11:27:51.612Z,7.20
2018-12-29T11:30:20.511Z,7.20
2018-12-29T11:32:49.448Z,7.20
2018-12-29T11:35:18.272Z,7.20
2018-12-29T11:37:47.244Z,7.20
2018-12-29T11:40:16.065Z,7.10
2018-12-29T11:42:44.691Z,7.20
2018-12-29T11:45:13.452Z,7.20
2018-12-29T11:47:49.584Z,7.20
2018-12-29T11:50:12.869Z,7.10
2018-12-29T11:52:43.314Z,7.10
2018-12-29T11:55:12.039Z,7.10
2018-12-29T11:57:40.675Z,7.10
2018-12-29T12:00:09.711Z,7.10
2018-12-29T12:02:38.677Z,7.10
2018-12-29T12:05:07.612Z,7.10
2018-12-29T12:07:36.639Z,7.10
2018-12-29T12:10:06.183Z,7.20
2018-12-29T12:12:35.665Z,7.20
2018-12-29T12:15:05.602Z,7.20
2018-12-29T12:17:34.534Z,7.30
2018-12-29T12:20:03.243Z,7.30
2018-12-29T12:22:32.080Z,7.30
2018-12-29T12:25:01.386Z,7.30
2018-12-29T12:27:30.302Z,7.30
2018-12-29T12:29:59.704Z,7.30
2018-12-29T12:32:28.563Z,7.30
2018-12-29T12:34:57.850Z,7.30
2018-12-29T12:37:28.241Z,7.30
2018-12-29T12:39:57.335Z,7.40
2018-12-29T12:42:25.923Z,7.40
2018-12-29T12:44:54.635Z,7.40
2018-12-29T12:47:23.368Z,7.40
2018-12-29T12:49:52.032Z,7.50
2018-12-29T12:52:20.583Z,7.50
2018-12-29T12:54:49.349Z,7.50
2018-12-29T12:57:18.514Z,7.50
2018-12-29T12:59:47.615Z,7.50
2018-12-29T13:02:16.444Z,7.50
2018-12-29T13:04:48.167Z,7.50
2018-12-29T13:07:16.911Z,7.50
2018-12-29T13:09:46.552Z,7.50
2018-12-29T13:12:16.887Z,7.40
2018-12-29T13:14:45.620Z,7.40
2018-12-29T13:17:14.533Z,7.30
2018-12-29T13:19:44.808Z,7.30
2018-12-29T13:22:13.478Z,7.30
2018-12-29T13:24:42.407Z,7.30
2018-12-29T13:27:11.555Z,7.20
2018-12-29T13:29:40.088Z,7.20
2018-12-29T13:32:08.648Z,7.20
2018-12-29T13:34:37.126Z,7.20
2018-12-29T13:37:05.854Z,7.20
2018-12-29T13:39:35.077Z,7.20
2018-12-29T13:42:03.747Z,7.10
2018-12-29T13:44:32.261Z,7.20
2018-12-29T13:47:00.852Z,7.20
2018-12-29T13:49:29.668Z,7.10
2018-12-29T13:51:58.867Z,7.10
2018-12-29T13:54:27.587Z,7.10
2018-12-29T13:56:56.778Z,7.10
2018-12-29T13:59:25.375Z,7.10
2018-12-29T14:01:54.026Z,7.10
2018-12-29T14:04:22.787Z,7.20
2018-12-29T14:06:51.533Z,7.20
2018-12-29T14:09:21.305Z,7.20
2018-12-29T14:11:50.089Z,7.20
2018-12-29T14:14:18.666Z,7.20
2018-12-29T14:16:49.838Z,7.20
2018-12-29T14:19:20.974Z,7.20
2018-12-29T14:21:51.247Z,7.20
2018-12-29T14:24:19.819Z,7.20
2018-12-29T14:26:48.654Z,7.20
2018-12-29T14:29:17.742Z,7.10
2018-12-29T14:31:46.428Z,7.20
2018-12-29T14:34:14.955Z,7.20
2018-12-29T14:36:43.538Z,7.20
2018-12-29T14:39:12.230Z,7.20
2018-12-29T14:41:41.462Z,7.20
2018-12-29T14:44:10.209Z,7.20
2018-12-29T14:46:38.945Z,7.20
2018-12-29T14:49:07.812Z,7.20
2018-12-29T14:51:36.594Z,7.20
2018-12-29T14:54:05.146Z,7.20
2018-12-29T14:56:33.856Z,7.20
2018-12-29T14:59:02.553Z,7.20
2018-12-29T15:01:31.140Z,7.20
2018-12-29T15:03:59.784Z,7.20
2018-12-29T15:06:28.331Z,7.20
2018-12-29T15:08:56.954Z,7.20
2018-12-29T15:11:25.861Z,7.10
2018-12-29T15:13:54.426Z,7.10
2018-12-29T15:16:23.104Z,7.20
2018-12-29T15:18:51.966Z,7.20
2018-12-29T15:21:20.661Z,7.30
2018-12-29T15:23:49.282Z,7.30
2018-12-29T15:26:18.181Z,7.30
2018-12-29T15:28:46.975Z,7.30
2018-12-29T15:31:15.669Z,7.30
2018-12-29T15:33:44.218Z,7.30
2018-12-29T15:36:16.129Z,7.40
2018-12-29T15:38:43.429Z,7.50
2018-12-29T15:41:12.261Z,7.40
2018-12-29T15:43:40.881Z,7.50
2018-12-29T15:46:09.440Z,7.50
2018-12-29T15:48:38.009Z,7.50
2018-12-29T15:51:06.610Z,7.50
2018-12-29T15:53:35.265Z,7.50
2018-12-29T15:56:04.062Z,7.50
2018-12-29T15:58:32.601Z,7.60
2018-12-29T16:01:01.110Z,7.80
2018-12-29T16:03:29.696Z,7.80
2018-12-29T16:05:58.433Z,7.70
2018-12-29T16:08:27.440Z,7.80
2018-12-29T16:10:55.957Z,7.70
2018-12-29T16:13:24.536Z,7.70
2018-12-29T16:15:53.119Z,7.70
2018-12-29T16:18:21.968Z,7.90
2018-12-29T16:20:54.269Z,7.90
2018-12-29T16:23:22.390Z,7.90
2018-12-29T16:25:52.993Z,7.90
2018-12-29T16:28:21.590Z,7.90
2018-12-29T16:30:50.219Z,7.90
2018-12-29T16:33:18.759Z,8.00
2018-12-29T16:35:47.314Z,8.00
2018-12-29T16:38:15.967Z,8.10
2018-12-29T16:40:44.557Z,8.20
2018-12-29T16:43:13.124Z,8.20
2018-12-29T16:45:41.718Z,8.20
2018-12-29T16:48:10.634Z,8.20
2018-12-29T16:50:39.435Z,8.30
2018-12-29T16:53:08.024Z,8.30
2018-12-29T16:55:36.840Z,8.40
2018-12-29T16:58:05.864Z,8.40
2018-12-29T17:00:34.584Z,8.50
2018-12-29T17:03:03.404Z,8.50
2018-12-29T17:05:32.026Z,8.60
2018-12-29T17:08:00.838Z,8.60
2018-12-29T17:10:29.551Z,8.60
2018-12-29T17:12:58.299Z,8.70
2018-12-29T17:15:27.193Z,8.70
2018-12-29T17:17:56.097Z,8.70
2018-12-29T17:20:24.837Z,8.70
2018-12-29T17:22:53.672Z,8.80
2018-12-29T17:25:23.367Z,8.90
2018-12-29T17:27:52.326Z,9.00
2018-12-29T17:30:20.890Z,9.00
2018-12-29T17:32:49.595Z,8.90
2018-12-29T17:35:18.144Z,8.90
2018-12-29T17:37:46.807Z,9.00
2018-12-29T17:40:15.404Z,8.90
2018-12-29T17:42:46.823Z,9.00
2018-12-29T17:45:15.499Z,9.00
2018-12-29T17:47:44.206Z,9.00
2018-12-29T17:50:12.823Z,9.00
2018-12-29T17:52:41.376Z,9.10
2018-12-29T17:55:10.242Z,9.10
2018-12-29T17:57:38.958Z,9.20
2018-12-29T18:00:08.173Z,9.20
2018-12-29T18:02:36.912Z,9.20
2018-12-29T18:05:05.745Z,9.30
2018-12-29T18:07:34.340Z,9.40
2018-12-29T18:10:03.020Z,9.40
2018-12-29T18:12:31.544Z,9.40
2018-12-29T18:15:02.392Z,9.50
2018-12-29T18:17:30.393Z,9.60
2018-12-29T18:19:58.954Z,9.60
2018-12-29T18:22:28.052Z,9.70
2018-12-29T18:24:56.952Z,9.80
2018-12-29T18:27:25.508Z,9.80
2018-12-29T18:29:54.041Z,9.80
2018-12-29T18:32:24.149Z,9.90
2018-12-29T18:34:52.686Z,9.90
2018-12-29T18:37:21.649Z,9.90
2018-12-29T18:39:50.296Z,10.00
2018-12-29T18:42:18.884Z,9.90
2018-12-29T18:44:47.458Z,10.00
2018-12-29T18:47:17.174Z,10.00
2018-12-29T18:49:45.664Z,10.00
2018-12-29T18:52:17.437Z,10.00
2018-12-29T18:54:48.063Z,10.00
2018-12-29T18:57:16.241Z,10.00
2018-12-29T18:59:46.307Z,9.90
2018-12-29T19:02:14.899Z,9.90
2018-12-29T19:04:43.623Z,9.90
2018-12-29T19:07:12.159Z,9.90
2018-12-29T19:09:40.729Z,9.90
2018-12-29T19:12:11.374Z,9.90
2018-12-29T19:14:39.508Z,9.80
2018-12-29T19:17:08.074Z,9.90
2018-12-29T19:19:46.037Z,9.90
2018-12-29T19:22:14.712Z,10.00
2018-12-29T19:24:47.526Z,9.90
2018-12-29T19:27:16.060Z,9.90
2018-12-29T19:29:44.911Z,9.90
2018-12-29T19:32:13.869Z,10.00
2018-12-29T19:34:42.791Z,10.00
2018-12-29T19:37:11.775Z,9.90
2018-12-29T19:39:40.719Z,10.00
2018-12-29T19:42:09.270Z,9.90
2018-12-29T19:44:38.115Z,10.00
2018-12-29T19:47:06.616Z,9.90
2018-12-29T19:49:35.594Z,9.90
2018-12-29T19:52:04.356Z,9.90
2018-12-29T19:54:32.994Z,9.90
2018-12-29T19:57:01.865Z,9.90
2018-12-29T19:59:30.738Z,9.90
2018-12-29T20:02:02.788Z,9.90
2018-12-29T20:04:31.311Z,9.80
2018-12-29T20:07:00.047Z,9.80
2018-12-29T20:09:28.700Z,9.80
2018-12-29T20:11:57.537Z,9.80
2018-12-29T20:14:26.124Z,9.80
2018-12-29T20:16:54.726Z,9.80
2018-12-29T20:19:23.283Z,9.80
2018-12-29T20:21:53.478Z,9.80
2018-12-29T20:24:22.345Z,9.80
2018-12-29T20:26:50.921Z,9.70
2018-12-29T20:29:20.993Z,9.80
2018-12-29T20:31:55.542Z,9.80
2018-12-29T20:34:24.094Z,9.80
2018-12-29T20:36:53.090Z,9.80
2018-12-29T20:39:24.145Z,9.70
2018-12-29T20:41:55.378Z,9.70
2018-12-29T20:44:23.959Z,9.70
2018-12-29T20:46:52.599Z,9.80
2018-12-29T20:49:22.805Z,9.70
2018-12-29T20:51:52.899Z,9.70
2018-12-29T20:54:21.455Z,9.70
2018-12-29T20:56:53.542Z,9.60
2018-12-29T20:59:23.337Z,9.70
2018-12-29T21:01:51.926Z,9.70
2018-12-29T21:04:22.074Z,9.60
2018-12-29T21:06:50.664Z,9.70
2018-12-29T21:09:19.281Z,9.60
2018-12-29T21:11:47.831Z,9.60
2018-12-29T21:14:16.774Z,9.60
2018-12-29T21:16:48.289Z,9.60
2018-12-29T21:19:16.941Z,9.50
2018-12-29T21:21:45.529Z,9.50
2018-12-29T21:24:14.189Z,9.60
2018-12-29T21:26:47.690Z,9.50
2018-12-29T21:29:16.210Z,9.60
2018-12-29T21:31:48.048Z,9.60
2018-12-29T21:34:16.651Z,9.60
2018-12-29T21:36:45.229Z,9.60
2018-12-29T21:39:14.193Z,9.60
2018-12-29T21:41:42.824Z,9.50
2018-12-29T21:44:15.120Z,9.40
2018-12-29T21:46:43.651Z,9.50
2018-12-29T21:49:12.206Z,9.40
2018-12-29T21:51:40.774Z,9.30
2018-12-29T21:54:10.850Z,9.40
2018-12-29T21:56:41.037Z,9.30
2018-12-29T21:59:11.117Z,9.20
2018-12-29T22:01:39.665Z,9.20
2018-12-29T22:04:08.247Z,9.20
2018-12-29T22:06:36.806Z,9.20
2018-12-29T22:09:08.335Z,9.20
2018-12-29T22:11:36.958Z,9.20
2018-12-29T22:14:05.665Z,9.30
2018-12-29T22:16:34.374Z,9.30
2018-12-29T22:19:03.359Z,9.30
2018-12-29T22:21:32.068Z,9.20
2018-12-29T22:24:00.932Z,9.20
2018-12-29T22:26:29.696Z,9.20
2018-12-29T22:28:58.443Z,9.10
2018-12-29T22:31:26.950Z,9.20
2018-12-29T22:33:55.518Z,9.20
2018-12-29T22:36:24.092Z,9.10
2018-12-29T22:38:52.643Z,9.20
2018-12-29T22:41:21.209Z,9.10
2018-12-29T22:43:49.968Z,9.10
2018-12-29T22:46:18.767Z,9.10
2018-12-29T22:48:47.365Z,9.10
2018-12-29T22:51:16.037Z,9.10
2018-12-29T22:53:45.028Z,9.10
2018-12-29T22:56:13.853Z,9.10
2018-12-29T22:58:43.036Z,9.10
2018-12-29T23:01:11.656Z,9.10
2018-12-29T23:03:40.521Z,9.10
2018-12-29T23:06:09.301Z,9.10
2018-12-29T23:08:38.237Z,9.00
2018-12-29T23:11:07.250Z,9.10
2018-12-29T23:13:35.912Z,9.10
2018-12-29T23:16:04.538Z,9.10
2018-12-29T23:18:33.521Z,9.10
2018-12-29T23:21:02.056Z,9.00
2018-12-29T23:23:30.901Z,9.00
2018-12-29T23:26:00.240Z,9.00
2018-12-29T23:28:29.157Z,9.00
2018-12-29T23:30:58.424Z,9.00
2018-12-29T23:33:27.303Z,9.00
2018-12-29T23:35:56.215Z,9.00
2018-12-29T23:38:24.986Z,9.00
2018-12-29T23:40:53.893Z,9.00
2018-12-29T23:43:22.776Z,9.00
2018-12-29T23:45:51.613Z,9.00
2018-12-29T23:48:20.360Z,9.00
2018-12-29T23:50:49.329Z,8.90
2018-12-29T23:53:18.047Z,8.90
2018-12-29T23:55:47.145Z,8.90
2018-12-29T23:58:15.677Z,8.90
